sensor_id;sensor_type;location;lat;lon;timestamp;P1;durP1;ratioP1;P2;durP2;ratioP2
59587;SDS011;45412;54.472;18.464;2023-12-20T00:00:23;4.40;;;1.20;;
59587;SDS011;45412;54.472;18.464;2023-12-20T00:03:31;5.10;;;1.20;;
59587;SDS011;45412;54.472;18.464;2023-12-20T00:06:29;4.50;;;1.10;;
59587;SDS011;45412;54.472;18.464;2023-12-20T00:09:18;5.60;;;1.40;;
59587;SDS011;45412;54.472;18.464;2023-12-20T00:12:07;6.20;;;2.50;;
59587;SDS011;45412;54.472;18.464;2023-12-20T00:14:54;4.60;;;1.20;;
59587;SDS011;45412;54.472;18.464;2023-12-20T00:17:42;4.30;;;1.00;;
59587;SDS011;45412;54.472;18.464;2023-12-20T00:20:31;4.00;;;1.00;;
59587;SDS011;45412;54.472;18.464;2023-12-20T00:23:19;3.90;;;1.00;;
59587;SDS011;45412;54.472;18.464;2023-12-20T00:26:07;3.40;;;0.90;;
59587;SDS011;45412;54.472;18.464;2023-12-20T00:28:55;4.00;;;0.90;;
59587;SDS011;45412;54.472;18.464;2023-12-20T00:31:43;3.50;;;1.00;;
59587;SDS011;45412;54.472;18.464;2023-12-20T00:34:30;3.50;;;0.80;;
59587;SDS011;45412;54.472;18.464;2023-12-20T00:37:19;4.80;;;0.90;;
59587;SDS011;45412;54.472;18.464;2023-12-20T00:40:07;3.40;;;0.90;;
59587;SDS011;45412;54.472;18.464;2023-12-20T00:42:55;4.90;;;1.00;;
59587;SDS011;45412;54.472;18.464;2023-12-20T00:45:43;2.60;;;0.70;;
59587;SDS011;45412;54.472;18.464;2023-12-20T00:48:31;4.20;;;0.90;;
59587;SDS011;45412;54.472;18.464;2023-12-20T00:51:19;4.20;;;1.00;;
59587;SDS011;45412;54.472;18.464;2023-12-20T00:54:07;4.40;;;1.00;;
59587;SDS011;45412;54.472;18.464;2023-12-20T00:56:55;3.60;;;0.90;;
59587;SDS011;45412;54.472;18.464;2023-12-20T00:59:43;3.70;;;0.90;;
59587;SDS011;45412;54.472;18.464;2023-12-20T01:02:30;5.20;;;1.00;;
59587;SDS011;45412;54.472;18.464;2023-12-20T01:05:18;4.20;;;1.00;;
59587;SDS011;45412;54.472;18.464;2023-12-20T01:08:06;5.30;;;1.10;;
59587;SDS011;45412;54.472;18.464;2023-12-20T01:10:54;5.00;;;1.00;;
59587;SDS011;45412;54.472;18.464;2023-12-20T01:13:43;4.40;;;1.00;;
59587;SDS011;45412;54.472;18.464;2023-12-20T01:16:32;4.70;;;1.10;;
59587;SDS011;45412;54.472;18.464;2023-12-20T01:19:19;5.50;;;1.30;;
59587;SDS011;45412;54.472;18.464;2023-12-20T01:22:07;5.00;;;1.10;;
59587;SDS011;45412;54.472;18.464;2023-12-20T01:24:55;5.10;;;1.10;;
59587;SDS011;45412;54.472;18.464;2023-12-20T01:27:43;5.80;;;1.20;;
59587;SDS011;45412;54.472;18.464;2023-12-20T01:30:32;6.40;;;1.30;;
59587;SDS011;45412;54.472;18.464;2023-12-20T01:33:20;9.10;;;1.60;;
59587;SDS011;45412;54.472;18.464;2023-12-20T01:36:07;7.00;;;1.40;;
59587;SDS011;45412;54.472;18.464;2023-12-20T01:38:56;5.30;;;1.40;;
59587;SDS011;45412;54.472;18.464;2023-12-20T01:41:44;6.90;;;1.20;;
59587;SDS011;45412;54.472;18.464;2023-12-20T01:44:33;9.70;;;2.00;;
59587;SDS011;45412;54.472;18.464;2023-12-20T01:47:21;8.50;;;1.40;;
59587;SDS011;45412;54.472;18.464;2023-12-20T01:50:09;7.70;;;1.40;;
59587;SDS011;45412;54.472;18.464;2023-12-20T01:52:58;8.60;;;1.30;;
59587;SDS011;45412;54.472;18.464;2023-12-20T01:55:48;12.10;;;1.60;;
59587;SDS011;45412;54.472;18.464;2023-12-20T01:58:40;9.30;;;1.40;;
59587;SDS011;45412;54.472;18.464;2023-12-20T02:01:31;8.40;;;1.90;;
59587;SDS011;45412;54.472;18.464;2023-12-20T02:04:19;9.80;;;2.10;;
59587;SDS011;45412;54.472;18.464;2023-12-20T02:07:07;7.80;;;1.50;;
59587;SDS011;45412;54.472;18.464;2023-12-20T02:09:56;7.60;;;1.90;;
59587;SDS011;45412;54.472;18.464;2023-12-20T02:12:44;9.00;;;1.50;;
59587;SDS011;45412;54.472;18.464;2023-12-20T02:15:32;11.50;;;2.10;;
59587;SDS011;45412;54.472;18.464;2023-12-20T02:18:20;5.80;;;1.30;;
59587;SDS011;45412;54.472;18.464;2023-12-20T02:21:09;11.20;;;1.60;;
59587;SDS011;45412;54.472;18.464;2023-12-20T02:23:57;6.70;;;1.30;;
59587;SDS011;45412;54.472;18.464;2023-12-20T02:26:44;7.80;;;1.50;;
59587;SDS011;45412;54.472;18.464;2023-12-20T02:29:34;8.30;;;1.40;;
59587;SDS011;45412;54.472;18.464;2023-12-20T02:32:23;9.70;;;1.60;;
59587;SDS011;45412;54.472;18.464;2023-12-20T02:35:15;8.40;;;1.80;;
59587;SDS011;45412;54.472;18.464;2023-12-20T02:38:02;8.00;;;1.30;;
59587;SDS011;45412;54.472;18.464;2023-12-20T02:40:50;11.20;;;1.50;;
59587;SDS011;45412;54.472;18.464;2023-12-20T02:43:38;9.80;;;1.50;;
59587;SDS011;45412;54.472;18.464;2023-12-20T02:46:26;7.80;;;1.50;;
59587;SDS011;45412;54.472;18.464;2023-12-20T02:49:14;8.80;;;1.90;;
59587;SDS011;45412;54.472;18.464;2023-12-20T02:52:02;9.80;;;1.80;;
59587;SDS011;45412;54.472;18.464;2023-12-20T02:54:50;8.50;;;1.30;;
59587;SDS011;45412;54.472;18.464;2023-12-20T02:57:38;13.80;;;1.80;;
59587;SDS011;45412;54.472;18.464;2023-12-20T03:00:29;9.20;;;1.70;;
59587;SDS011;45412;54.472;18.464;2023-12-20T03:03:17;11.10;;;1.80;;
59587;SDS011;45412;54.472;18.464;2023-12-20T03:06:05;7.80;;;1.50;;
59587;SDS011;45412;54.472;18.464;2023-12-20T03:08:53;10.60;;;2.00;;
59587;SDS011;45412;54.472;18.464;2023-12-20T03:11:41;8.10;;;1.30;;
59587;SDS011;45412;54.472;18.464;2023-12-20T03:14:29;7.50;;;1.40;;
59587;SDS011;45412;54.472;18.464;2023-12-20T03:17:17;8.00;;;1.50;;
59587;SDS011;45412;54.472;18.464;2023-12-20T03:20:06;7.90;;;1.70;;
59587;SDS011;45412;54.472;18.464;2023-12-20T03:22:55;9.10;;;1.60;;
59587;SDS011;45412;54.472;18.464;2023-12-20T03:25:42;8.60;;;1.80;;
59587;SDS011;45412;54.472;18.464;2023-12-20T03:28:30;7.40;;;1.70;;
59587;SDS011;45412;54.472;18.464;2023-12-20T03:31:18;10.80;;;1.90;;
59587;SDS011;45412;54.472;18.464;2023-12-20T03:34:07;8.80;;;1.90;;
59587;SDS011;45412;54.472;18.464;2023-12-20T03:36:54;11.60;;;1.70;;
59587;SDS011;45412;54.472;18.464;2023-12-20T03:39:43;7.90;;;1.40;;
59587;SDS011;45412;54.472;18.464;2023-12-20T03:42:31;11.20;;;1.80;;
59587;SDS011;45412;54.472;18.464;2023-12-20T03:45:18;8.90;;;1.50;;
59587;SDS011;45412;54.472;18.464;2023-12-20T03:48:06;8.30;;;1.50;;
59587;SDS011;45412;54.472;18.464;2023-12-20T03:50:54;7.70;;;1.40;;
59587;SDS011;45412;54.472;18.464;2023-12-20T03:53:42;7.90;;;1.40;;
59587;SDS011;45412;54.472;18.464;2023-12-20T03:56:30;7.80;;;1.60;;
59587;SDS011;45412;54.472;18.464;2023-12-20T03:59:18;11.90;;;2.00;;
59587;SDS011;45412;54.472;18.464;2023-12-20T04:02:06;10.90;;;1.80;;
59587;SDS011;45412;54.472;18.464;2023-12-20T04:04:54;10.10;;;1.80;;
59587;SDS011;45412;54.472;18.464;2023-12-20T04:07:41;10.50;;;1.80;;
59587;SDS011;45412;54.472;18.464;2023-12-20T04:10:29;9.80;;;1.50;;
59587;SDS011;45412;54.472;18.464;2023-12-20T04:13:17;10.00;;;2.50;;
59587;SDS011;45412;54.472;18.464;2023-12-20T04:16:06;9.30;;;1.80;;
59587;SDS011;45412;54.472;18.464;2023-12-20T04:18:53;7.90;;;1.50;;
59587;SDS011;45412;54.472;18.464;2023-12-20T04:21:41;8.40;;;1.40;;
59587;SDS011;45412;54.472;18.464;2023-12-20T04:24:29;9.10;;;1.90;;
59587;SDS011;45412;54.472;18.464;2023-12-20T04:27:16;6.90;;;1.40;;
59587;SDS011;45412;54.472;18.464;2023-12-20T04:30:04;6.70;;;1.50;;
59587;SDS011;45412;54.472;18.464;2023-12-20T04:32:53;10.50;;;1.90;;
59587;SDS011;45412;54.472;18.464;2023-12-20T04:35:40;9.50;;;1.90;;
59587;SDS011;45412;54.472;18.464;2023-12-20T04:38:30;8.90;;;1.50;;
59587;SDS011;45412;54.472;18.464;2023-12-20T04:41:18;7.50;;;1.60;;
59587;SDS011;45412;54.472;18.464;2023-12-20T04:44:06;7.80;;;1.50;;
59587;SDS011;45412;54.472;18.464;2023-12-20T04:46:54;9.40;;;1.70;;
59587;SDS011;45412;54.472;18.464;2023-12-20T04:49:43;8.00;;;1.80;;
59587;SDS011;45412;54.472;18.464;2023-12-20T04:52:31;11.30;;;2.40;;
59587;SDS011;45412;54.472;18.464;2023-12-20T04:55:19;7.60;;;1.70;;
59587;SDS011;45412;54.472;18.464;2023-12-20T04:58:08;7.20;;;1.60;;
59587;SDS011;45412;54.472;18.464;2023-12-20T05:00:56;10.70;;;2.00;;
59587;SDS011;45412;54.472;18.464;2023-12-20T05:03:43;11.70;;;1.90;;
59587;SDS011;45412;54.472;18.464;2023-12-20T05:06:31;9.90;;;2.00;;
59587;SDS011;45412;54.472;18.464;2023-12-20T05:09:19;9.70;;;1.90;;
59587;SDS011;45412;54.472;18.464;2023-12-20T05:12:07;10.30;;;1.60;;
59587;SDS011;45412;54.472;18.464;2023-12-20T05:14:55;10.30;;;1.80;;
59587;SDS011;45412;54.472;18.464;2023-12-20T05:17:44;10.50;;;2.50;;
59587;SDS011;45412;54.472;18.464;2023-12-20T05:20:32;8.40;;;2.00;;
59587;SDS011;45412;54.472;18.464;2023-12-20T05:23:19;10.00;;;2.10;;
59587;SDS011;45412;54.472;18.464;2023-12-20T05:26:07;10.70;;;1.50;;
59587;SDS011;45412;54.472;18.464;2023-12-20T05:28:55;13.40;;;2.10;;
59587;SDS011;45412;54.472;18.464;2023-12-20T05:31:43;9.40;;;2.40;;
59587;SDS011;45412;54.472;18.464;2023-12-20T05:34:31;9.40;;;1.70;;
59587;SDS011;45412;54.472;18.464;2023-12-20T05:37:19;11.10;;;1.90;;
59587;SDS011;45412;54.472;18.464;2023-12-20T05:40:08;14.70;;;2.00;;
59587;SDS011;45412;54.472;18.464;2023-12-20T05:42:59;11.50;;;2.00;;
59587;SDS011;45412;54.472;18.464;2023-12-20T05:45:47;7.60;;;1.80;;
59587;SDS011;45412;54.472;18.464;2023-12-20T05:48:35;9.30;;;1.80;;
59587;SDS011;45412;54.472;18.464;2023-12-20T05:51:22;10.50;;;2.40;;
59587;SDS011;45412;54.472;18.464;2023-12-20T05:54:11;7.50;;;2.10;;
59587;SDS011;45412;54.472;18.464;2023-12-20T05:56:59;10.00;;;2.00;;
59587;SDS011;45412;54.472;18.464;2023-12-20T05:59:48;13.20;;;1.80;;
59587;SDS011;45412;54.472;18.464;2023-12-20T06:02:36;11.00;;;2.00;;
59587;SDS011;45412;54.472;18.464;2023-12-20T06:05:26;10.80;;;1.90;;
59587;SDS011;45412;54.472;18.464;2023-12-20T06:08:14;8.10;;;2.00;;
59587;SDS011;45412;54.472;18.464;2023-12-20T06:11:02;8.50;;;1.60;;
59587;SDS011;45412;54.472;18.464;2023-12-20T06:13:50;12.00;;;1.80;;
59587;SDS011;45412;54.472;18.464;2023-12-20T06:16:40;8.80;;;2.20;;
59587;SDS011;45412;54.472;18.464;2023-12-20T06:19:28;9.60;;;1.90;;
59587;SDS011;45412;54.472;18.464;2023-12-20T06:22:16;8.80;;;1.90;;
59587;SDS011;45412;54.472;18.464;2023-12-20T06:25:04;8.80;;;1.90;;
59587;SDS011;45412;54.472;18.464;2023-12-20T06:27:53;9.80;;;2.20;;
59587;SDS011;45412;54.472;18.464;2023-12-20T06:30:40;11.10;;;1.90;;
59587;SDS011;45412;54.472;18.464;2023-12-20T06:33:29;10.60;;;2.00;;
59587;SDS011;45412;54.472;18.464;2023-12-20T06:36:18;10.60;;;2.10;;
59587;SDS011;45412;54.472;18.464;2023-12-20T06:39:06;14.40;;;2.10;;
59587;SDS011;45412;54.472;18.464;2023-12-20T06:41:54;10.10;;;1.80;;
59587;SDS011;45412;54.472;18.464;2023-12-20T06:44:41;9.50;;;1.90;;
59587;SDS011;45412;54.472;18.464;2023-12-20T06:47:29;9.70;;;2.00;;
59587;SDS011;45412;54.472;18.464;2023-12-20T06:50:17;8.50;;;1.80;;
59587;SDS011;45412;54.472;18.464;2023-12-20T06:53:05;12.20;;;1.70;;
59587;SDS011;45412;54.472;18.464;2023-12-20T06:55:54;9.50;;;2.00;;
59587;SDS011;45412;54.472;18.464;2023-12-20T06:58:44;11.60;;;1.90;;
59587;SDS011;45412;54.472;18.464;2023-12-20T07:01:31;11.60;;;2.30;;
59587;SDS011;45412;54.472;18.464;2023-12-20T07:04:19;14.20;;;2.60;;
59587;SDS011;45412;54.472;18.464;2023-12-20T07:07:09;13.60;;;2.20;;
59587;SDS011;45412;54.472;18.464;2023-12-20T07:09:58;6.80;;;1.60;;
59587;SDS011;45412;54.472;18.464;2023-12-20T07:12:46;9.30;;;2.00;;
59587;SDS011;45412;54.472;18.464;2023-12-20T07:15:34;8.50;;;1.80;;
59587;SDS011;45412;54.472;18.464;2023-12-20T07:18:23;10.60;;;2.30;;
59587;SDS011;45412;54.472;18.464;2023-12-20T07:21:11;13.00;;;2.20;;
59587;SDS011;45412;54.472;18.464;2023-12-20T07:23:59;11.60;;;2.10;;
59587;SDS011;45412;54.472;18.464;2023-12-20T07:26:47;10.10;;;2.10;;
59587;SDS011;45412;54.472;18.464;2023-12-20T07:29:35;9.10;;;2.50;;
59587;SDS011;45412;54.472;18.464;2023-12-20T07:32:23;8.40;;;2.20;;
59587;SDS011;45412;54.472;18.464;2023-12-20T07:35:11;10.50;;;2.10;;
59587;SDS011;45412;54.472;18.464;2023-12-20T07:37:59;11.80;;;2.80;;
59587;SDS011;45412;54.472;18.464;2023-12-20T07:40:47;9.20;;;2.30;;
59587;SDS011;45412;54.472;18.464;2023-12-20T07:43:35;10.40;;;2.20;;
59587;SDS011;45412;54.472;18.464;2023-12-20T07:46:23;13.20;;;2.60;;
59587;SDS011;45412;54.472;18.464;2023-12-20T07:49:13;11.10;;;2.10;;
59587;SDS011;45412;54.472;18.464;2023-12-20T07:52:02;6.90;;;2.30;;
59587;SDS011;45412;54.472;18.464;2023-12-20T07:54:50;9.30;;;2.10;;
59587;SDS011;45412;54.472;18.464;2023-12-20T07:57:37;11.80;;;2.10;;
59587;SDS011;45412;54.472;18.464;2023-12-20T08:00:26;10.20;;;2.20;;
59587;SDS011;45412;54.472;18.464;2023-12-20T08:03:14;8.90;;;2.30;;
59587;SDS011;45412;54.472;18.464;2023-12-20T08:06:02;10.80;;;2.40;;
59587;SDS011;45412;54.472;18.464;2023-12-20T08:08:50;8.90;;;2.50;;
59587;SDS011;45412;54.472;18.464;2023-12-20T08:11:48;11.20;;;2.10;;
59587;SDS011;45412;54.472;18.464;2023-12-20T08:14:39;11.10;;;2.90;;
59587;SDS011;45412;54.472;18.464;2023-12-20T08:17:27;10.00;;;2.60;;
59587;SDS011;45412;54.472;18.464;2023-12-20T08:20:18;12.10;;;2.70;;
59587;SDS011;45412;54.472;18.464;2023-12-20T08:23:16;10.90;;;2.30;;
59587;SDS011;45412;54.472;18.464;2023-12-20T08:26:05;8.30;;;2.60;;
59587;SDS011;45412;54.472;18.464;2023-12-20T08:28:53;10.20;;;2.90;;
59587;SDS011;45412;54.472;18.464;2023-12-20T08:31:44;11.10;;;2.80;;
59587;SDS011;45412;54.472;18.464;2023-12-20T08:34:32;9.90;;;2.70;;
59587;SDS011;45412;54.472;18.464;2023-12-20T08:37:20;11.90;;;2.60;;
59587;SDS011;45412;54.472;18.464;2023-12-20T08:40:08;9.10;;;2.40;;
59587;SDS011;45412;54.472;18.464;2023-12-20T08:42:56;9.20;;;2.20;;
59587;SDS011;45412;54.472;18.464;2023-12-20T08:45:44;8.80;;;2.10;;
59587;SDS011;45412;54.472;18.464;2023-12-20T08:48:32;10.60;;;2.30;;
59587;SDS011;45412;54.472;18.464;2023-12-20T08:51:20;8.20;;;2.10;;
59587;SDS011;45412;54.472;18.464;2023-12-20T08:54:10;7.70;;;2.10;;
59587;SDS011;45412;54.472;18.464;2023-12-20T08:57:00;9.20;;;2.20;;
59587;SDS011;45412;54.472;18.464;2023-12-20T08:59:48;11.80;;;2.40;;
59587;SDS011;45412;54.472;18.464;2023-12-20T09:02:36;10.90;;;2.50;;
59587;SDS011;45412;54.472;18.464;2023-12-20T09:05:26;10.10;;;1.90;;
59587;SDS011;45412;54.472;18.464;2023-12-20T09:08:13;8.10;;;2.00;;
59587;SDS011;45412;54.472;18.464;2023-12-20T09:11:01;8.70;;;2.30;;
59587;SDS011;45412;54.472;18.464;2023-12-20T09:13:49;10.10;;;2.10;;
59587;SDS011;45412;54.472;18.464;2023-12-20T09:16:38;12.60;;;2.30;;
59587;SDS011;45412;54.472;18.464;2023-12-20T09:19:26;9.50;;;2.30;;
59587;SDS011;45412;54.472;18.464;2023-12-20T09:22:14;7.50;;;2.40;;
59587;SDS011;45412;54.472;18.464;2023-12-20T09:25:02;8.90;;;2.20;;
59587;SDS011;45412;54.472;18.464;2023-12-20T09:27:51;9.70;;;2.20;;
59587;SDS011;45412;54.472;18.464;2023-12-20T09:30:40;8.90;;;1.90;;
59587;SDS011;45412;54.472;18.464;2023-12-20T09:33:28;7.40;;;2.20;;
59587;SDS011;45412;54.472;18.464;2023-12-20T09:36:33;10.80;;;2.20;;
59587;SDS011;45412;54.472;18.464;2023-12-20T09:39:23;12.80;;;2.20;;
59587;SDS011;45412;54.472;18.464;2023-12-20T09:42:11;7.00;;;1.80;;
59587;SDS011;45412;54.472;18.464;2023-12-20T09:45:07;10.50;;;2.20;;
59587;SDS011;45412;54.472;18.464;2023-12-20T09:47:58;13.00;;;2.70;;
59587;SDS011;45412;54.472;18.464;2023-12-20T09:50:46;8.60;;;2.20;;
59587;SDS011;45412;54.472;18.464;2023-12-20T09:53:40;7.90;;;2.20;;
59587;SDS011;45412;54.472;18.464;2023-12-20T09:56:30;9.70;;;1.80;;
59587;SDS011;45412;54.472;18.464;2023-12-20T09:59:18;9.00;;;2.00;;
59587;SDS011;45412;54.472;18.464;2023-12-20T10:02:06;10.30;;;2.50;;
59587;SDS011;45412;54.472;18.464;2023-12-20T10:05:02;11.10;;;2.30;;
59587;SDS011;45412;54.472;18.464;2023-12-20T10:07:51;9.30;;;2.10;;
59587;SDS011;45412;54.472;18.464;2023-12-20T10:10:40;8.40;;;2.00;;
59587;SDS011;45412;54.472;18.464;2023-12-20T10:13:34;9.30;;;1.90;;
59587;SDS011;45412;54.472;18.464;2023-12-20T10:16:29;8.10;;;1.90;;
59587;SDS011;45412;54.472;18.464;2023-12-20T10:19:17;8.20;;;2.00;;
59587;SDS011;45412;54.472;18.464;2023-12-20T10:22:06;7.60;;;1.90;;
59587;SDS011;45412;54.472;18.464;2023-12-20T10:24:53;10.20;;;2.10;;
59587;SDS011;45412;54.472;18.464;2023-12-20T10:27:44;7.60;;;1.80;;
59587;SDS011;45412;54.472;18.464;2023-12-20T10:30:31;9.30;;;2.00;;
59587;SDS011;45412;54.472;18.464;2023-12-20T10:33:26;7.70;;;2.20;;
59587;SDS011;45412;54.472;18.464;2023-12-20T10:36:20;8.70;;;2.30;;
59587;SDS011;45412;54.472;18.464;2023-12-20T10:39:08;7.90;;;2.40;;
59587;SDS011;45412;54.472;18.464;2023-12-20T10:41:59;11.10;;;2.50;;
59587;SDS011;45412;54.472;18.464;2023-12-20T10:44:46;9.20;;;2.30;;
59587;SDS011;45412;54.472;18.464;2023-12-20T10:47:34;11.20;;;2.50;;
59587;SDS011;45412;54.472;18.464;2023-12-20T10:50:27;9.80;;;2.60;;
59587;SDS011;45412;54.472;18.464;2023-12-20T10:53:16;7.30;;;2.40;;
59587;SDS011;45412;54.472;18.464;2023-12-20T10:56:04;13.10;;;2.90;;
59587;SDS011;45412;54.472;18.464;2023-12-20T10:58:56;12.30;;;3.20;;
59587;SDS011;45412;54.472;18.464;2023-12-20T11:01:49;8.70;;;2.80;;
59587;SDS011;45412;54.472;18.464;2023-12-20T11:07:43;8.80;;;2.60;;
59587;SDS011;45412;54.472;18.464;2023-12-20T11:10:59;10.90;;;2.60;;
59587;SDS011;45412;54.472;18.464;2023-12-20T11:13:58;11.90;;;3.20;;
59587;SDS011;45412;54.472;18.464;2023-12-20T11:16:49;9.20;;;2.40;;
59587;SDS011;45412;54.472;18.464;2023-12-20T11:22:55;9.10;;;2.60;;
59587;SDS011;45412;54.472;18.464;2023-12-20T11:25:48;10.30;;;3.30;;
59587;SDS011;45412;54.472;18.464;2023-12-20T11:28:39;7.60;;;2.70;;
59587;SDS011;45412;54.472;18.464;2023-12-20T11:31:27;9.00;;;3.30;;
59587;SDS011;45412;54.472;18.464;2023-12-20T11:34:15;8.90;;;2.60;;
59587;SDS011;45412;54.472;18.464;2023-12-20T11:37:05;10.20;;;3.00;;
59587;SDS011;45412;54.472;18.464;2023-12-20T11:39:55;10.80;;;3.30;;
59587;SDS011;45412;54.472;18.464;2023-12-20T11:42:45;11.10;;;3.00;;
59587;SDS011;45412;54.472;18.464;2023-12-20T11:45:38;9.80;;;2.70;;
59587;SDS011;45412;54.472;18.464;2023-12-20T11:48:38;7.40;;;2.40;;
59587;SDS011;45412;54.472;18.464;2023-12-20T11:51:31;10.60;;;2.70;;
59587;SDS011;45412;54.472;18.464;2023-12-20T11:54:19;9.30;;;2.10;;
59587;SDS011;45412;54.472;18.464;2023-12-20T11:57:07;7.00;;;2.80;;
59587;SDS011;45412;54.472;18.464;2023-12-20T11:59:55;8.80;;;2.50;;
59587;SDS011;45412;54.472;18.464;2023-12-20T12:02:43;7.80;;;2.60;;
59587;SDS011;45412;54.472;18.464;2023-12-20T12:05:34;7.10;;;2.50;;
59587;SDS011;45412;54.472;18.464;2023-12-20T12:08:24;6.80;;;2.30;;
59587;SDS011;45412;54.472;18.464;2023-12-20T12:11:11;8.20;;;2.40;;
59587;SDS011;45412;54.472;18.464;2023-12-20T12:14:00;7.00;;;2.60;;
59587;SDS011;45412;54.472;18.464;2023-12-20T12:16:48;7.80;;;2.30;;
59587;SDS011;45412;54.472;18.464;2023-12-20T12:19:38;9.40;;;2.50;;
59587;SDS011;45412;54.472;18.464;2023-12-20T12:22:27;8.70;;;3.00;;
59587;SDS011;45412;54.472;18.464;2023-12-20T12:25:15;8.20;;;2.30;;
59587;SDS011;45412;54.472;18.464;2023-12-20T12:28:03;6.40;;;1.80;;
59587;SDS011;45412;54.472;18.464;2023-12-20T12:30:58;8.90;;;2.50;;
59587;SDS011;45412;54.472;18.464;2023-12-20T12:33:47;7.50;;;2.20;;
59587;SDS011;45412;54.472;18.464;2023-12-20T12:36:35;7.30;;;2.30;;
59587;SDS011;45412;54.472;18.464;2023-12-20T12:39:23;8.70;;;2.10;;
59587;SDS011;45412;54.472;18.464;2023-12-20T12:42:14;6.80;;;2.30;;
59587;SDS011;45412;54.472;18.464;2023-12-20T12:45:02;8.00;;;2.40;;
59587;SDS011;45412;54.472;18.464;2023-12-20T12:47:50;7.80;;;2.50;;
59587;SDS011;45412;54.472;18.464;2023-12-20T12:50:38;8.20;;;2.50;;
59587;SDS011;45412;54.472;18.464;2023-12-20T12:53:26;7.40;;;2.40;;
59587;SDS011;45412;54.472;18.464;2023-12-20T12:56:16;7.20;;;2.20;;
59587;SDS011;45412;54.472;18.464;2023-12-20T12:59:04;6.60;;;1.70;;
59587;SDS011;45412;54.472;18.464;2023-12-20T13:01:53;6.20;;;1.90;;
59587;SDS011;45412;54.472;18.464;2023-12-20T13:04:41;6.20;;;2.00;;
59587;SDS011;45412;54.472;18.464;2023-12-20T13:07:30;7.30;;;2.10;;
59587;SDS011;45412;54.472;18.464;2023-12-20T13:10:18;5.90;;;1.80;;
59587;SDS011;45412;54.472;18.464;2023-12-20T13:13:07;6.60;;;2.20;;
59587;SDS011;45412;54.472;18.464;2023-12-20T13:15:54;6.60;;;1.70;;
59587;SDS011;45412;54.472;18.464;2023-12-20T13:18:43;5.90;;;1.80;;
59587;SDS011;45412;54.472;18.464;2023-12-20T13:21:31;7.00;;;2.30;;
59587;SDS011;45412;54.472;18.464;2023-12-20T13:24:19;6.50;;;2.10;;
59587;SDS011;45412;54.472;18.464;2023-12-20T13:27:06;7.30;;;2.10;;
59587;SDS011;45412;54.472;18.464;2023-12-20T13:29:54;7.00;;;2.00;;
59587;SDS011;45412;54.472;18.464;2023-12-20T13:32:42;6.40;;;2.10;;
59587;SDS011;45412;54.472;18.464;2023-12-20T13:35:30;6.50;;;2.00;;
59587;SDS011;45412;54.472;18.464;2023-12-20T13:38:18;5.40;;;1.70;;
59587;SDS011;45412;54.472;18.464;2023-12-20T13:41:06;7.50;;;2.00;;
59587;SDS011;45412;54.472;18.464;2023-12-20T13:43:54;7.30;;;1.90;;
59587;SDS011;45412;54.472;18.464;2023-12-20T13:46:42;6.40;;;2.00;;
59587;SDS011;45412;54.472;18.464;2023-12-20T13:49:31;6.60;;;1.80;;
59587;SDS011;45412;54.472;18.464;2023-12-20T13:52:18;7.10;;;1.90;;
59587;SDS011;45412;54.472;18.464;2023-12-20T13:55:07;6.40;;;1.90;;
59587;SDS011;45412;54.472;18.464;2023-12-20T13:57:56;8.40;;;2.00;;
59587;SDS011;45412;54.472;18.464;2023-12-20T14:00:45;6.20;;;2.00;;
59587;SDS011;45412;54.472;18.464;2023-12-20T14:03:34;5.50;;;1.80;;
59587;SDS011;45412;54.472;18.464;2023-12-20T14:06:21;6.30;;;1.90;;
59587;SDS011;45412;54.472;18.464;2023-12-20T14:09:09;8.30;;;2.20;;
59587;SDS011;45412;54.472;18.464;2023-12-20T14:12:01;6.40;;;1.90;;
59587;SDS011;45412;54.472;18.464;2023-12-20T14:14:49;6.10;;;1.80;;
59587;SDS011;45412;54.472;18.464;2023-12-20T14:17:38;7.10;;;2.60;;
59587;SDS011;45412;54.472;18.464;2023-12-20T14:20:26;7.40;;;2.20;;
59587;SDS011;45412;54.472;18.464;2023-12-20T14:23:14;8.10;;;2.20;;
59587;SDS011;45412;54.472;18.464;2023-12-20T14:26:02;8.00;;;2.50;;
59587;SDS011;45412;54.472;18.464;2023-12-20T14:28:50;6.60;;;2.20;;
59587;SDS011;45412;54.472;18.464;2023-12-20T14:31:38;6.80;;;2.30;;
59587;SDS011;45412;54.472;18.464;2023-12-20T14:34:27;6.70;;;2.20;;
59587;SDS011;45412;54.472;18.464;2023-12-20T14:37:15;7.30;;;2.30;;
59587;SDS011;45412;54.472;18.464;2023-12-20T14:40:08;9.30;;;2.80;;
59587;SDS011;45412;54.472;18.464;2023-12-20T14:43:03;9.10;;;3.10;;
59587;SDS011;45412;54.472;18.464;2023-12-20T14:45:52;8.10;;;2.60;;
59587;SDS011;45412;54.472;18.464;2023-12-20T14:48:41;11.10;;;2.90;;
59587;SDS011;45412;54.472;18.464;2023-12-20T14:51:29;8.30;;;3.00;;
59587;SDS011;45412;54.472;18.464;2023-12-20T14:54:16;7.10;;;2.70;;
59587;SDS011;45412;54.472;18.464;2023-12-20T14:57:04;7.20;;;2.50;;
59587;SDS011;45412;54.472;18.464;2023-12-20T14:59:52;7.70;;;2.60;;
59587;SDS011;45412;54.472;18.464;2023-12-20T15:02:40;9.10;;;2.70;;
59587;SDS011;45412;54.472;18.464;2023-12-20T15:05:29;8.20;;;2.60;;
59587;SDS011;45412;54.472;18.464;2023-12-20T15:08:16;6.80;;;2.60;;
59587;SDS011;45412;54.472;18.464;2023-12-20T15:11:04;10.30;;;2.90;;
59587;SDS011;45412;54.472;18.464;2023-12-20T15:13:52;7.90;;;2.90;;
59587;SDS011;45412;54.472;18.464;2023-12-20T15:16:43;9.30;;;3.30;;
59587;SDS011;45412;54.472;18.464;2023-12-20T15:19:31;8.10;;;3.10;;
59587;SDS011;45412;54.472;18.464;2023-12-20T15:22:19;9.10;;;3.20;;
59587;SDS011;45412;54.472;18.464;2023-12-20T15:25:08;7.70;;;2.90;;
59587;SDS011;45412;54.472;18.464;2023-12-20T15:27:56;8.00;;;3.00;;
59587;SDS011;45412;54.472;18.464;2023-12-20T15:30:44;8.10;;;3.20;;
59587;SDS011;45412;54.472;18.464;2023-12-20T15:33:32;10.40;;;3.60;;
59587;SDS011;45412;54.472;18.464;2023-12-20T15:36:20;8.20;;;3.00;;
59587;SDS011;45412;54.472;18.464;2023-12-20T15:39:08;9.50;;;3.50;;
59587;SDS011;45412;54.472;18.464;2023-12-20T15:41:56;7.60;;;3.00;;
59587;SDS011;45412;54.472;18.464;2023-12-20T15:44:44;8.70;;;3.10;;
59587;SDS011;45412;54.472;18.464;2023-12-20T15:47:33;9.10;;;3.40;;
59587;SDS011;45412;54.472;18.464;2023-12-20T15:50:23;10.50;;;3.70;;
59587;SDS011;45412;54.472;18.464;2023-12-20T15:53:12;8.90;;;3.70;;
59587;SDS011;45412;54.472;18.464;2023-12-20T15:56:00;11.40;;;3.80;;
59587;SDS011;45412;54.472;18.464;2023-12-20T15:58:48;8.80;;;3.10;;
59587;SDS011;45412;54.472;18.464;2023-12-20T16:01:39;7.90;;;2.90;;
59587;SDS011;45412;54.472;18.464;2023-12-20T16:04:27;8.60;;;2.50;;
59587;SDS011;45412;54.472;18.464;2023-12-20T16:07:19;8.00;;;2.80;;
59587;SDS011;45412;54.472;18.464;2023-12-20T16:10:07;7.60;;;2.20;;
59587;SDS011;45412;54.472;18.464;2023-12-20T16:12:54;7.40;;;2.50;;
59587;SDS011;45412;54.472;18.464;2023-12-20T16:15:43;7.00;;;2.10;;
59587;SDS011;45412;54.472;18.464;2023-12-20T16:18:31;6.30;;;2.30;;
59587;SDS011;45412;54.472;18.464;2023-12-20T16:21:20;7.00;;;2.20;;
59587;SDS011;45412;54.472;18.464;2023-12-20T16:24:08;6.90;;;2.00;;
59587;SDS011;45412;54.472;18.464;2023-12-20T16:26:56;7.20;;;1.80;;
59587;SDS011;45412;54.472;18.464;2023-12-20T16:29:43;6.10;;;1.80;;
59587;SDS011;45412;54.472;18.464;2023-12-20T16:32:32;5.70;;;1.90;;
59587;SDS011;45412;54.472;18.464;2023-12-20T16:35:20;7.30;;;2.20;;
59587;SDS011;45412;54.472;18.464;2023-12-20T16:38:07;6.10;;;2.00;;
59587;SDS011;45412;54.472;18.464;2023-12-20T16:40:55;6.10;;;2.00;;
59587;SDS011;45412;54.472;18.464;2023-12-20T16:43:43;6.10;;;1.60;;